Time;durP1;ratioP1;P1;durP2;ratioP2;P2;SDS_P1;SDS_P2;PMS_P1;PMS_P2;Temp;Humidity;BMP_temperature;BMP_pressure;BME280_temperature;BME280_humidity;BME280_pressure;Samples;Min_cycle;Max_cycle;Signal;HPM_P1;HPM_P2
2022/11/04 00:01:35;;;;;;;5.00;3.50;;;;;;;;;;5077099;28;20228;-29
2022/11/04 00:04:02;;;;;;;4.60;3.20;;;;;;;;;;5086796;28;20228;-34
2022/11/04 00:06:30;;;;;;;5.73;2.80;;;;;;;;;;5079657;28;20277;-33
2022/11/04 00:08:58;;;;;;;3.93;3.03;;;;;;;;;;5079023;28;20211;-32
2022/11/04 00:14:11;;;;;;;2.90;2.60;;;;;;;;;;5073600;28;20238;-32
2022/11/04 00:19:24;;;;;;;2.77;2.57;;;;;;;;;;5078737;28;20254;-31
2022/11/04 00:30:08;;;;;;;6.93;4.20;;;;;;;;;;5069502;28;20220;-29
2022/11/04 00:35:20;;;;;;;5.30;3.97;;;;;;;;;;5081080;28;20215;-33
2022/11/04 00:37:49;;;;;;;10.53;5.73;;;;;;;;;;5079020;28;20206;-32
2022/11/04 00:40:17;;;;;;;6.70;4.10;;;;;;;;;;5081186;28;20223;-32
2022/11/04 00:42:45;;;;;;;8.77;4.33;;;;;;;;;;5086247;28;20209;-34
2022/11/04 00:45:12;;;;;;;7.23;3.57;;;;;;;;;;5080649;28;20236;-31
2022/11/04 00:47:39;;;;;;;5.73;3.90;;;;;;;;;;5089609;28;20300;-30
2022/11/04 00:50:07;;;;;;;3.87;3.00;;;;;;;;;;5073526;28;20226;-29
2022/11/04 00:52:34;;;;;;;3.23;2.57;;;;;;;;;;5084957;28;20219;-31
2022/11/04 00:55:03;;;;;;;4.93;3.33;;;;;;;;;;5090419;28;20200;-29
2022/11/04 00:57:30;;;;;;;3.40;3.07;;;;;;;;;;5089943;28;20204;-31
2022/11/04 00:59:57;;;;;;;3.77;2.70;;;;;;;;;;5075836;28;20232;-34
2022/11/04 01:02:25;;;;;;;2.40;2.20;;;;;;;;;;5078269;28;20201;-30
2022/11/04 01:04:52;;;;;;;3.67;2.10;;;;;;;;;;5070493;28;20225;-31
2022/11/04 01:07:19;;;;;;;3.63;2.00;;;;;;;;;;5075092;28;20299;-34
2022/11/04 01:09:46;;;;;;;2.90;2.37;;;;;;;;;;5082472;28;20203;-33
2022/11/04 01:12:15;;;;;;;2.20;2.00;;;;;;;;;;5068829;28;20211;-33
2022/11/04 01:14:42;;;;;;;3.47;1.93;;;;;;;;;;5071705;28;20201;-31
2022/11/04 01:17:10;;;;;;;2.87;1.87;;;;;;;;;;5076078;28;20211;-30
2022/11/04 01:19:37;;;;;;;2.40;2.10;;;;;;;;;;5073812;28;20213;-28
2022/11/04 01:22:04;;;;;;;2.10;1.80;;;;;;;;;;5072931;28;20669;-31
2022/11/04 01:24:31;;;;;;;2.93;1.97;;;;;;;;;;5076226;28;20217;-33
2022/11/04 01:26:58;;;;;;;2.70;1.80;;;;;;;;;;5072063;28;20295;-31
2022/11/04 01:29:27;;;;;;;2.87;1.90;;;;;;;;;;5075759;28;20204;-29
2022/11/04 01:31:54;;;;;;;2.53;1.70;;;;;;;;;;5084837;28;20217;-31
2022/11/04 01:34:21;;;;;;;1.93;1.83;;;;;;;;;;5089978;28;20197;-32
2022/11/04 01:36:48;;;;;;;1.30;1.20;;;;;;;;;;5078406;28;20277;-33
2022/11/04 01:39:15;;;;;;;4.70;1.83;;;;;;;;;;5080552;28;20236;-33
2022/11/04 01:41:42;;;;;;;2.00;1.60;;;;;;;;;;5071279;28;20229;-30
2022/11/04 01:44:28;;;;;;;2.50;1.37;;;;;;;;;;5082659;28;20311;-32
2022/11/04 01:46:56;;;;;;;3.07;2.13;;;;;;;;;;5078409;28;20205;-30
2022/11/04 01:49:25;;;;;;;2.80;2.50;;;;;;;;;;5076173;28;20212;-34
2022/11/04 01:51:53;;;;;;;2.40;2.07;;;;;;;;;;5082068;28;20233;-33
2022/11/04 01:54:21;;;;;;;3.50;2.50;;;;;;;;;;5085127;28;20193;-31
2022/11/04 01:56:49;;;;;;;2.30;1.90;;;;;;;;;;5093129;28;20208;-28
2022/11/04 01:59:19;;;;;;;1.50;1.40;;;;;;;;;;5083808;28;20215;-31
2022/11/04 02:01:46;;;;;;;2.27;1.43;;;;;;;;;;5076115;28;20234;-31
2022/11/04 02:04:28;;;;;;;1.30;1.20;;;;;;;;;;5087222;28;20221;-30
2022/11/04 02:06:57;;;;;;;1.07;1.07;;;;;;;;;;5067134;28;20205;-33
2022/11/04 02:09:24;;;;;;;1.70;1.43;;;;;;;;;;5070371;28;20208;-30
2022/11/04 02:14:37;;;;;;;2.77;1.13;;;;;;;;;;5063837;28;20208;-30
2022/11/04 02:17:09;;;;;;;1.73;1.23;;;;;;;;;;5071970;28;20233;-36
2022/11/04 02:19:47;;;;;;;1.43;1.23;;;;;;;;;;5064809;28;20212;-32
2022/11/04 02:22:24;;;;;;;1.10;1.00;;;;;;;;;;5070962;28;20276;-36
2022/11/04 02:25:12;;;;;;;2.33;1.23;;;;;;;;;;5072199;28;20224;-35
2022/11/04 02:27:49;;;;;;;1.60;1.40;;;;;;;;;;5044455;28;20210;-32
2022/11/04 02:30:18;;;;;;;1.23;0.90;;;;;;;;;;5065960;28;20251;-33
2022/11/04 02:33:08;;;;;;;2.00;1.10;;;;;;;;;;5070051;28;20215;-29
2022/11/04 02:35:40;;;;;;;0.83;0.83;;;;;;;;;;5059307;28;20200;-31
2022/11/04 02:38:11;;;;;;;1.00;1.00;;;;;;;;;;5071009;28;20213;-33
2022/11/04 02:40:41;;;;;;;1.17;1.07;;;;;;;;;;5071952;28;20316;-30
2022/11/04 02:43:12;;;;;;;1.10;1.00;;;;;;;;;;5065699;28;20209;-32
2022/11/04 02:45:43;;;;;;;1.00;0.90;;;;;;;;;;5066471;28;20289;-35
2022/11/04 02:48:12;;;;;;;1.03;1.03;;;;;;;;;;5070112;28;20205;-30
2022/11/04 02:50:42;;;;;;;2.03;1.50;;;;;;;;;;5067274;28;20231;-31
2022/11/04 02:53:12;;;;;;;3.00;1.40;;;;;;;;;;5069531;28;20201;-33
2022/11/04 02:55:41;;;;;;;1.20;1.10;;;;;;;;;;5071499;28;20201;-33
2022/11/04 02:58:11;;;;;;;0.80;0.80;;;;;;;;;;5069618;28;20206;-32
2022/11/04 03:00:40;;;;;;;1.13;0.70;;;;;;;;;;5063997;28;20330;-28
2022/11/04 03:03:11;;;;;;;0.70;0.70;;;;;;;;;;5070934;28;20236;-34
2022/11/04 03:05:40;;;;;;;0.60;0.60;;;;;;;;;;5077877;28;20235;-32
2022/11/04 03:08:10;;;;;;;0.87;0.87;;;;;;;;;;5094354;28;20266;-31
2022/11/04 03:10:40;;;;;;;0.60;0.50;;;;;;;;;;5111789;28;20230;-31
2022/11/04 03:13:10;;;;;;;1.17;1.00;;;;;;;;;;5097833;28;20213;-34
2022/11/04 03:15:39;;;;;;;1.10;0.90;;;;;;;;;;5098760;28;20583;-33
2022/11/04 03:18:11;;;;;;;1.00;1.00;;;;;;;;;;5103238;28;20207;-29
2022/11/04 03:20:40;;;;;;;1.20;1.20;;;;;;;;;;5093339;28;20599;-31
2022/11/04 03:23:08;;;;;;;1.00;1.00;;;;;;;;;;5090710;28;20274;-31
2022/11/04 03:25:38;;;;;;;0.90;0.90;;;;;;;;;;5091320;28;20224;-29
2022/11/04 03:28:10;;;;;;;1.00;1.00;;;;;;;;;;5090477;28;20192;-35
2022/11/04 03:30:39;;;;;;;1.57;1.30;;;;;;;;;;5104387;28;20257;-33
2022/11/04 03:33:07;;;;;;;1.57;1.47;;;;;;;;;;5109102;28;20192;-30
2022/11/04 03:35:36;;;;;;;1.50;1.40;;;;;;;;;;5103142;28;20206;-30
2022/11/04 03:38:03;;;;;;;1.43;1.33;;;;;;;;;;5090944;28;20215;-34
2022/11/04 03:40:30;;;;;;;1.73;1.47;;;;;;;;;;5090753;28;20311;-31
2022/11/04 03:42:59;;;;;;;1.97;1.77;;;;;;;;;;5089586;28;20232;-32
2022/11/04 03:45:27;;;;;;;1.20;1.10;;;;;;;;;;5096611;28;20232;-33
2022/11/04 03:47:54;;;;;;;1.20;1.10;;;;;;;;;;5102303;28;20214;-33
2022/11/04 03:50:24;;;;;;;1.40;1.27;;;;;;;;;;5098178;28;20255;-31
2022/11/04 03:52:53;;;;;;;1.40;1.30;;;;;;;;;;5101522;28;20272;-33
2022/11/04 03:55:21;;;;;;;1.40;1.30;;;;;;;;;;5090580;28;20235;-31
2022/11/04 03:57:51;;;;;;;1.57;1.30;;;;;;;;;;5094163;28;20195;-33
2022/11/04 04:00:19;;;;;;;1.90;1.10;;;;;;;;;;5098261;28;20220;-30
2022/11/04 04:02:52;;;;;;;1.40;1.17;;;;;;;;;;5106445;28;20217;-33
2022/11/04 04:07:50;;;;;;;1.60;0.90;;;;;;;;;;5068262;28;20248;-36
2022/11/04 04:10:39;;;;;;;1.00;1.00;;;;;;;;;;5072713;28;20231;-35
2022/11/04 04:13:08;;;;;;;0.83;0.83;;;;;;;;;;5066395;28;20220;-34
2022/11/04 04:15:41;;;;;;;1.27;1.10;;;;;;;;;;5070164;28;20836;-33
2022/11/04 04:18:10;;;;;;;1.20;1.10;;;;;;;;;;5081761;28;20246;-33
2022/11/04 04:20:39;;;;;;;2.70;0.90;;;;;;;;;;5063428;28;20750;-35
2022/11/04 04:27:29;;;;;;;1.80;1.00;;;;;;;;;;5061150;28;20208;-31
2022/11/04 04:28:44;;;;;;;1.53;1.10;;;;;;;;;;5073108;28;20220;-35
2022/11/04 04:31:13;;;;;;;0.90;0.90;;;;;;;;;;5066957;28;20221;-33
2022/11/04 04:34:00;;;;;;;0.73;0.73;;;;;;;;;;5064050;28;20206;-33
2022/11/04 04:36:31;;;;;;;0.80;0.80;;;;;;;;;;5057592;28;20289;-32
2022/11/04 04:47:18;;;;;;;1.97;1.00;;;;;;;;;;5056739;28;20217;-32
2022/11/04 04:49:52;;;;;;;1.23;0.90;;;;;;;;;;5074237;28;20201;-35
2022/11/04 04:52:20;;;;;;;0.90;0.90;;;;;;;;;;5068815;28;20210;-34
2022/11/04 04:54:47;;;;;;;0.80;0.80;;;;;;;;;;5068048;28;20193;-32
2022/11/04 04:57:15;;;;;;;0.80;0.80;;;;;;;;;;5071894;28;20204;-34
2022/11/04 04:59:42;;;;;;;1.23;0.80;;;;;;;;;;5058322;28;20206;-35
2022/11/04 05:02:10;;;;;;;1.10;1.00;;;;;;;;;;5060811;28;20649;-35
2022/11/04 05:04:37;;;;;;;0.50;0.50;;;;;;;;;;5051825;28;20903;-34
2022/11/04 05:07:06;;;;;;;0.93;0.80;;;;;;;;;;5062322;28;20206;-34
2022/11/04 05:09:34;;;;;;;0.90;0.90;;;;;;;;;;5065824;28;20643;-31
2022/11/04 05:12:01;;;;;;;0.80;0.80;;;;;;;;;;5071449;28;20320;-33
2022/11/04 05:14:29;;;;;;;0.70;0.70;;;;;;;;;;5065485;28;20324;-33
2022/11/04 05:16:57;;;;;;;0.60;0.60;;;;;;;;;;5060880;28;20220;-33
2022/11/04 05:19:24;;;;;;;0.87;0.87;;;;;;;;;;5074699;28;20201;-33
2022/11/04 05:21:51;;;;;;;1.20;0.80;;;;;;;;;;5054135;28;20226;-34
2022/11/04 05:24:18;;;;;;;0.80;0.80;;;;;;;;;;5064603;28;20203;-34
2022/11/04 05:26:45;;;;;;;0.60;0.60;;;;;;;;;;5082664;28;20226;-33
2022/11/04 05:29:12;;;;;;;2.10;0.80;;;;;;;;;;5058377;28;20550;-36
2022/11/04 05:31:41;;;;;;;0.87;0.70;;;;;;;;;;5059860;28;20248;-34
2022/11/04 05:34:16;;;;;;;0.90;0.90;;;;;;;;;;5057989;28;20205;-33
2022/11/04 05:36:43;;;;;;;1.03;0.80;;;;;;;;;;5064442;28;20255;-31
2022/11/04 05:39:11;;;;;;;0.73;0.73;;;;;;;;;;5066013;28;20201;-34
2022/11/04 05:41:39;;;;;;;1.60;1.00;;;;;;;;;;5070549;28;20218;-34
2022/11/04 05:44:08;;;;;;;1.63;1.00;;;;;;;;;;5069820;28;20210;-31
2022/11/04 05:46:35;;;;;;;1.27;0.73;;;;;;;;;;5068386;28;20222;-35
2022/11/04 05:49:07;;;;;;;1.10;1.00;;;;;;;;;;5077668;28;20236;-35
2022/11/04 05:51:34;;;;;;;1.70;1.00;;;;;;;;;;5067968;28;20308;-35
2022/11/04 05:54:01;;;;;;;0.80;0.80;;;;;;;;;;5071669;28;20201;-34
2022/11/04 05:56:29;;;;;;;1.20;1.17;;;;;;;;;;5076211;28;20204;-33
2022/11/04 05:58:58;;;;;;;2.43;1.43;;;;;;;;;;5071288;28;20244;-34
2022/11/04 06:01:30;;;;;;;2.37;2.00;;;;;;;;;;5059686;28;20231;-33
2022/11/04 06:03:58;;;;;;;0.73;0.70;;;;;;;;;;5073240;28;20307;-35
2022/11/04 06:06:28;;;;;;;0.90;0.90;;;;;;;;;;5070702;28;20236;-35
2022/11/04 06:08:55;;;;;;;1.60;1.30;;;;;;;;;;5071621;28;20289;-37
2022/11/04 06:11:23;;;;;;;3.57;1.47;;;;;;;;;;5075548;28;20252;-37
2022/11/04 06:13:51;;;;;;;1.37;0.80;;;;;;;;;;5066471;28;20201;-32
2022/11/04 06:16:18;;;;;;;1.53;1.03;;;;;;;;;;5070004;28;20368;-33
2022/11/04 06:18:46;;;;;;;1.00;1.00;;;;;;;;;;5074034;28;20200;-33
2022/11/04 06:21:24;;;;;;;1.00;1.00;;;;;;;;;;5068405;28;20233;-32
2022/11/04 06:23:55;;;;;;;1.20;1.10;;;;;;;;;;5070566;28;20299;-32
2022/11/04 06:26:23;;;;;;;1.23;1.10;;;;;;;;;;5075373;28;20221;-34
2022/11/04 06:28:50;;;;;;;2.33;1.40;;;;;;;;;;5067418;28;20209;-34
2022/11/04 06:31:18;;;;;;;1.80;1.10;;;;;;;;;;5066854;28;20312;-35
2022/11/04 06:33:45;;;;;;;1.40;1.20;;;;;;;;;;5073827;28;20206;-33
2022/11/04 06:36:13;;;;;;;1.47;1.37;;;;;;;;;;5066678;28;20211;-35
2022/11/04 06:38:40;;;;;;;1.03;1.00;;;;;;;;;;5066978;28;20647;-36
2022/11/04 06:41:11;;;;;;;1.40;1.23;;;;;;;;;;5092546;28;20221;-33
2022/11/04 06:43:38;;;;;;;2.30;1.47;;;;;;;;;;5073788;28;20220;-33
2022/11/04 06:46:05;;;;;;;1.70;1.40;;;;;;;;;;5064616;28;20225;-31
2022/11/04 06:48:32;;;;;;;2.67;1.63;;;;;;;;;;5065398;28;20201;-30
2022/11/04 06:51:00;;;;;;;1.50;1.40;;;;;;;;;;5056182;28;20299;-34
2022/11/04 06:53:27;;;;;;;3.87;1.60;;;;;;;;;;5057557;28;20206;-32
2022/11/04 06:55:55;;;;;;;6.00;1.40;;;;;;;;;;5070873;28;20209;-34
2022/11/04 06:58:24;;;;;;;1.73;1.47;;;;;;;;;;5054484;28;20208;-34
2022/11/04 07:00:52;;;;;;;2.43;1.93;;;;;;;;;;5056986;28;20361;-31
2022/11/04 07:03:19;;;;;;;4.80;1.47;;;;;;;;;;5062614;28;20237;-36
2022/11/04 07:05:47;;;;;;;1.70;1.60;;;;;;;;;;5056798;28;20289;-33
2022/11/04 07:08:14;;;;;;;1.70;1.60;;;;;;;;;;5073381;28;20197;-34
2022/11/04 07:10:41;;;;;;;2.70;1.37;;;;;;;;;;5089456;28;20307;-31
2022/11/04 07:13:08;;;;;;;2.60;1.47;;;;;;;;;;5067993;28;20292;-36
2022/11/04 07:15:38;;;;;;;1.50;1.27;;;;;;;;;;5065667;28;20208;-34
2022/11/04 07:18:05;;;;;;;3.33;1.97;;;;;;;;;;5073795;28;20680;-34
2022/11/04 07:20:33;;;;;;;1.57;1.20;;;;;;;;;;5063375;28;20702;-33
2022/11/04 07:23:00;;;;;;;1.67;1.57;;;;;;;;;;5074169;28;20216;-33
2022/11/04 07:25:27;;;;;;;2.27;1.30;;;;;;;;;;5074384;28;20621;-31
2022/11/04 07:27:54;;;;;;;1.60;1.50;;;;;;;;;;5074114;28;20659;-33
2022/11/04 07:30:21;;;;;;;7.70;2.03;;;;;;;;;;5069016;28;20229;-35
2022/11/04 07:32:50;;;;;;;2.33;2.10;;;;;;;;;;5069796;28;20259;-33
2022/11/04 07:35:17;;;;;;;2.47;1.97;;;;;;;;;;5059093;28;20232;-32
2022/11/04 07:37:44;;;;;;;5.27;2.17;;;;;;;;;;5060477;28;20727;-33
2022/11/04 07:40:11;;;;;;;10.03;2.30;;;;;;;;;;5054361;28;20222;-31
2022/11/04 07:42:39;;;;;;;2.03;1.73;;;;;;;;;;5056890;28;20297;-32
2022/11/04 07:45:06;;;;;;;2.87;2.03;;;;;;;;;;5071355;28;20220;-35
2022/11/04 07:47:35;;;;;;;2.40;2.00;;;;;;;;;;5060421;28;20213;-31
2022/11/04 07:50:03;;;;;;;2.17;1.97;;;;;;;;;;5057230;28;20252;-34
2022/11/04 07:52:30;;;;;;;2.60;2.00;;;;;;;;;;5065128;28;20298;-32
2022/11/04 07:54:57;;;;;;;1.80;1.70;;;;;;;;;;5057060;28;20360;-32
2022/11/04 07:57:25;;;;;;;1.73;1.63;;;;;;;;;;5064105;28;20225;-31
2022/11/04 07:59:52;;;;;;;1.70;1.60;;;;;;;;;;5068794;28;20288;-30
2022/11/04 08:02:19;;;;;;;1.60;1.50;;;;;;;;;;5069809;28;20288;-33
2022/11/04 08:04:46;;;;;;;1.40;1.30;;;;;;;;;;5062216;28;20205;-32
2022/11/04 08:07:15;;;;;;;1.83;1.70;;;;;;;;;;5046746;28;20317;-33
2022/11/04 08:09:42;;;;;;;1.97;1.60;;;;;;;;;;5049407;28;20265;-33
2022/11/04 08:12:09;;;;;;;2.27;1.90;;;;;;;;;;5051834;28;20205;-34
2022/11/04 08:14:37;;;;;;;2.00;1.80;;;;;;;;;;5048993;28;20711;-35
2022/11/04 08:17:04;;;;;;;2.20;2.00;;;;;;;;;;5046389;28;20202;-36
2022/11/04 08:19:31;;;;;;;1.50;1.40;;;;;;;;;;5053337;28;20578;-32
2022/11/04 08:21:58;;;;;;;2.40;2.20;;;;;;;;;;5044261;28;20583;-36
2022/11/04 08:24:26;;;;;;;4.97;2.23;;;;;;;;;;5053081;28;20217;-35
2022/11/04 08:26:53;;;;;;;3.67;1.90;;;;;;;;;;5042511;28;20221;-35
2022/11/04 08:29:21;;;;;;;2.50;2.30;;;;;;;;;;5048137;28;20208;-36
2022/11/04 08:31:48;;;;;;;2.27;1.90;;;;;;;;;;5058054;28;20214;-33
2022/11/04 08:34:17;;;;;;;2.83;2.17;;;;;;;;;;5045393;28;20242;-35
2022/11/04 08:36:44;;;;;;;2.17;1.97;;;;;;;;;;5047945;28;20201;-35
2022/11/04 08:39:12;;;;;;;2.10;1.70;;;;;;;;;;5042462;28;20199;-37
2022/11/04 08:41:41;;;;;;;2.80;1.40;;;;;;;;;;5033389;28;20313;-33
2022/11/04 08:44:08;;;;;;;1.60;1.50;;;;;;;;;;5042072;28;20301;-34
2022/11/04 08:46:37;;;;;;;2.10;1.63;;;;;;;;;;5049708;28;20225;-31
2022/11/04 08:49:05;;;;;;;4.03;2.57;;;;;;;;;;5053358;28;20210;-36
2022/11/04 08:51:42;;;;;;;3.13;1.90;;;;;;;;;;5046356;28;20218;-32
2022/11/04 08:54:10;;;;;;;3.37;2.00;;;;;;;;;;5044769;28;20281;-33
2022/11/04 08:56:38;;;;;;;2.20;1.90;;;;;;;;;;5052525;28;20301;-34
2022/11/04 08:59:08;;;;;;;2.43;2.23;;;;;;;;;;5044180;28;20299;-35
2022/11/04 09:01:36;;;;;;;3.07;2.37;;;;;;;;;;5052476;28;20228;-36
2022/11/04 09:04:04;;;;;;;6.60;2.87;;;;;;;;;;5049646;28;20199;-35
2022/11/04 09:06:33;;;;;;;4.80;2.60;;;;;;;;;;5044281;28;20233;-29
2022/11/04 09:09:03;;;;;;;3.80;3.10;;;;;;;;;;5056241;28;20205;-34
2022/11/04 09:11:30;;;;;;;3.70;3.30;;;;;;;;;;5071829;28;20304;-32
2022/11/04 09:13:59;;;;;;;4.67;3.20;;;;;;;;;;5065996;28;20236;-34
2022/11/04 09:16:28;;;;;;;4.00;3.23;;;;;;;;;;5064096;28;20287;-32
2022/11/04 09:18:56;;;;;;;3.47;3.17;;;;;;;;;;5056038;28;20203;-34
2022/11/04 09:21:23;;;;;;;4.13;3.00;;;;;;;;;;5059291;28;20326;-34
2022/11/04 09:23:50;;;;;;;4.10;3.10;;;;;;;;;;5072440;28;20198;-31
2022/11/04 09:26:18;;;;;;;3.83;2.70;;;;;;;;;;5071710;28;20641;-32
2022/11/04 09:28:45;;;;;;;3.10;2.80;;;;;;;;;;5069951;28;20202;-31
2022/11/04 09:31:14;;;;;;;3.13;2.83;;;;;;;;;;5068197;28;20224;-35
2022/11/04 09:33:43;;;;;;;4.57;3.23;;;;;;;;;;5051727;28;20554;-35
2022/11/04 09:36:10;;;;;;;3.33;2.93;;;;;;;;;;5062400;28;20219;-36
2022/11/04 09:38:37;;;;;;;3.80;3.10;;;;;;;;;;5067014;28;20452;-32
2022/11/04 09:41:10;;;;;;;3.47;2.83;;;;;;;;;;5072240;28;20223;-35
2022/11/04 09:43:42;;;;;;;3.00;2.70;;;;;;;;;;5069804;28;20205;-35
2022/11/04 09:46:10;;;;;;;8.37;2.70;;;;;;;;;;5067116;28;20309;-34
2022/11/04 09:48:41;;;;;;;3.70;2.63;;;;;;;;;;5054903;28;20296;-34
2022/11/04 09:51:10;;;;;;;4.23;2.20;;;;;;;;;;5061529;28;20298;-33
2022/11/04 09:53:39;;;;;;;3.47;2.70;;;;;;;;;;5057534;28;20379;-31
2022/11/04 09:56:11;;;;;;;5.03;2.47;;;;;;;;;;5068722;28;20544;-33
2022/11/04 09:58:39;;;;;;;7.40;2.93;;;;;;;;;;5065940;28;20205;-31
2022/11/04 10:01:10;;;;;;;5.87;2.60;;;;;;;;;;5055105;28;20222;-33
2022/11/04 10:03:42;;;;;;;5.20;2.83;;;;;;;;;;5072247;28;20195;-31
2022/11/04 10:06:19;;;;;;;3.07;2.77;;;;;;;;;;5145333;22;20233;-29
2022/11/04 10:08:52;;;;;;;3.77;2.80;;;;;;;;;;5084701;28;20264;-28
2022/11/04 10:11:22;;;;;;;3.27;2.63;;;;;;;;;;5093209;28;20262;-34
2022/11/04 10:13:54;;;;;;;4.77;3.00;;;;;;;;;;5090473;28;20288;-34
2022/11/04 10:16:28;;;;;;;5.60;2.50;;;;;;;;;;5078526;28;20189;-33
2022/11/04 10:19:01;;;;;;;6.87;2.60;;;;;;;;;;5090035;28;20216;-34
2022/11/04 10:21:39;;;;;;;3.17;2.73;;;;;;;;;;5076904;28;20221;-32
2022/11/04 10:24:08;;;;;;;4.10;2.50;;;;;;;;;;5081177;28;20211;-32
2022/11/04 10:26:42;;;;;;;2.50;2.30;;;;;;;;;;5082991;28;20309;-34
2022/11/04 10:29:13;;;;;;;3.27;2.30;;;;;;;;;;5092293;28;20296;-34
2022/11/04 10:31:42;;;;;;;2.70;2.23;;;;;;;;;;5086888;28;20228;-32
2022/11/04 10:34:16;;;;;;;3.47;2.43;;;;;;;;;;5088451;28;20201;-30
2022/11/04 10:36:48;;;;;;;9.23;2.37;;;;;;;;;;5086967;28;20196;-31
2022/11/04 10:39:32;;;;;;;2.60;1.90;;;;;;;;;;5086680;28;20227;-35
2022/11/04 10:42:02;;;;;;;2.30;2.10;;;;;;;;;;5086635;28;20359;-33
2022/11/04 10:44:31;;;;;;;2.40;2.20;;;;;;;;;;5092425;28;20201;-33
2022/11/04 10:47:02;;;;;;;2.40;1.70;;;;;;;;;;5094015;28;20251;-35
2022/11/04 10:49:43;;;;;;;3.60;1.93;;;;;;;;;;5074573;28;20320;-31
2022/11/04 10:52:12;;;;;;;2.33;2.00;;;;;;;;;;5089623;28;20228;-30
2022/11/04 10:54:40;;;;;;;1.77;1.60;;;;;;;;;;5092894;28;20291;-32
2022/11/04 10:57:08;;;;;;;4.07;1.70;;;;;;;;;;5092643;28;20200;-34
2022/11/04 10:59:43;;;;;;;2.13;1.70;;;;;;;;;;5087436;28;20205;-33
2022/11/04 11:02:10;;;;;;;1.93;1.83;;;;;;;;;;5092154;28;20222;-29
2022/11/04 11:04:39;;;;;;;3.57;2.00;;;;;;;;;;5084595;28;20204;-33
2022/11/04 11:07:07;;;;;;;2.77;1.47;;;;;;;;;;5094155;28;20312;-31
2022/11/04 11:09:37;;;;;;;1.67;1.50;;;;;;;;;;5082913;28;20210;-30
2022/11/04 11:12:06;;;;;;;2.53;1.40;;;;;;;;;;5092637;28;20262;-33
2022/11/04 11:14:35;;;;;;;2.70;1.50;;;;;;;;;;5094881;28;20197;-31
2022/11/04 11:17:20;;;;;;;1.63;1.23;;;;;;;;;;5084036;28;20204;-29
2022/11/04 11:19:50;;;;;;;3.63;1.30;;;;;;;;;;5081681;28;20193;-30
2022/11/04 11:22:30;;;;;;;3.70;1.23;;;;;;;;;;5093004;28;20219;-33
2022/11/04 11:25:13;;;;;;;0.73;0.73;;;;;;;;;;5094668;28;20253;-31
2022/11/04 11:27:41;;;;;;;3.77;1.10;;;;;;;;;;5094735;28;20209;-31
2022/11/04 11:30:19;;;;;;;3.57;0.87;;;;;;;;;;5088552;28;20230;-33
2022/11/04 11:32:52;;;;;;;3.03;0.87;;;;;;;;;;5089556;28;20200;-33
2022/11/04 11:35:20;;;;;;;2.23;0.83;;;;;;;;;;5091607;28;20201;-31
2022/11/04 11:37:47;;;;;;;3.40;0.93;;;;;;;;;;5092429;28;20197;-32
2022/11/04 11:40:25;;;;;;;3.03;0.90;;;;;;;;;;5094091;28;20224;-30
2022/11/04 11:42:53;;;;;;;2.50;0.90;;;;;;;;;;5090521;28;20208;-34
2022/11/04 11:45:22;;;;;;;1.50;1.10;;;;;;;;;;5093183;28;20208;-31
2022/11/04 11:47:53;;;;;;;2.33;0.90;;;;;;;;;;5089506;28;20224;-33
2022/11/04 11:50:24;;;;;;;2.87;0.80;;;;;;;;;;5077144;28;20358;-34
2022/11/04 11:52:53;;;;;;;1.17;0.90;;;;;;;;;;5089345;28;20202;-34
2022/11/04 11:55:22;;;;;;;1.70;0.90;;;;;;;;;;5073113;28;20259;-30
2022/11/04 11:57:54;;;;;;;1.60;0.70;;;;;;;;;;5077049;28;20231;-30
2022/11/04 12:00:27;;;;;;;4.43;1.27;;;;;;;;;;5080656;28;20262;-35
2022/11/04 12:02:57;;;;;;;1.33;0.80;;;;;;;;;;5094414;28;20200;-30
2022/11/04 12:05:27;;;;;;;1.80;0.90;;;;;;;;;;5082057;28;20205;-35
2022/11/04 12:07:57;;;;;;;1.37;0.70;;;;;;;;;;5073510;28;20218;-31
2022/11/04 12:10:28;;;;;;;2.43;0.70;;;;;;;;;;5072498;28;20228;-34
2022/11/04 12:13:03;;;;;;;3.10;0.90;;;;;;;;;;5071989;28;20201;-34
2022/11/04 12:15:36;;;;;;;1.70;0.67;;;;;;;;;;5081400;28;20213;-31
2022/11/04 12:18:11;;;;;;;2.03;0.80;;;;;;;;;;5092433;28;20185;-34
2022/11/04 12:20:45;;;;;;;3.40;0.90;;;;;;;;;;5083175;28;20294;-30
2022/11/04 12:23:16;;;;;;;1.43;0.70;;;;;;;;;;5090542;28;20204;-33
2022/11/04 12:25:45;;;;;;;2.80;1.00;;;;;;;;;;5092715;28;20192;-32
2022/11/04 12:28:21;;;;;;;0.97;0.83;;;;;;;;;;5083723;28;20227;-30
2022/11/04 12:30:54;;;;;;;2.37;1.00;;;;;;;;;;5091123;28;20242;-30
2022/11/04 12:33:27;;;;;;;1.67;0.80;;;;;;;;;;5092318;28;20204;-30
2022/11/04 12:35:58;;;;;;;3.20;0.77;;;;;;;;;;5080614;28;20218;-30
2022/11/04 12:38:37;;;;;;;3.17;0.73;;;;;;;;;;5084236;28;20193;-30
2022/11/04 12:41:08;;;;;;;1.20;0.80;;;;;;;;;;5092579;28;20233;-32
2022/11/04 12:43:41;;;;;;;6.87;1.30;;;;;;;;;;5078986;28;20267;-30
2022/11/04 12:46:12;;;;;;;1.13;0.83;;;;;;;;;;5091921;28;20288;-32
2022/11/04 12:48:53;;;;;;;2.40;0.77;;;;;;;;;;5091464;28;20209;-29
2022/11/04 12:51:25;;;;;;;2.20;0.90;;;;;;;;;;5089836;28;20319;-32
2022/11/04 12:53:57;;;;;;;2.90;0.83;;;;;;;;;;5092065;28;20283;-31
2022/11/04 12:56:28;;;;;;;3.83;0.90;;;;;;;;;;5091605;28;20193;-31
2022/11/04 12:59:04;;;;;;;3.63;1.13;;;;;;;;;;5079661;28;20295;-33
2022/11/04 13:01:33;;;;;;;2.00;0.70;;;;;;;;;;5084713;28;20219;-30
2022/11/04 13:04:04;;;;;;;2.03;0.70;;;;;;;;;;5087964;28;20281;-30
2022/11/04 13:06:34;;;;;;;2.13;0.80;;;;;;;;;;5084788;28;20303;-32
2022/11/04 13:09:03;;;;;;;1.50;0.67;;;;;;;;;;5091783;28;20311;-31
2022/11/04 13:11:32;;;;;;;1.10;0.57;;;;;;;;;;5089128;28;20232;-31
2022/11/04 13:14:04;;;;;;;3.03;1.23;;;;;;;;;;5083023;28;20201;-31
2022/11/04 13:16:32;;;;;;;3.10;1.00;;;;;;;;;;5084706;28;20211;-29
2022/11/04 13:18:59;;;;;;;1.23;0.90;;;;;;;;;;5079504;28;20272;-29
2022/11/04 13:21:28;;;;;;;2.90;0.90;;;;;;;;;;5086002;28;20227;-34
2022/11/04 13:23:57;;;;;;;0.60;0.60;;;;;;;;;;5092153;28;20216;-31
2022/11/04 13:26:25;;;;;;;4.40;1.10;;;;;;;;;;5092419;28;20230;-33
2022/11/04 13:28:58;;;;;;;1.23;0.80;;;;;;;;;;5087711;28;20315;-32
2022/11/04 13:31:31;;;;;;;2.57;0.70;;;;;;;;;;5083867;28;20320;-35
2022/11/04 13:34:02;;;;;;;3.60;0.97;;;;;;;;;;5088941;28;22156;-30
2022/11/04 13:36:33;;;;;;;2.30;0.60;;;;;;;;;;5086645;28;20193;-31
2022/11/04 13:39:02;;;;;;;0.97;0.60;;;;;;;;;;5091933;28;20195;-32
2022/11/04 13:41:38;;;;;;;3.97;1.20;;;;;;;;;;5091888;28;20315;-32
2022/11/04 13:44:13;;;;;;;3.70;1.07;;;;;;;;;;5081489;28;20193;-29
2022/11/04 13:46:48;;;;;;;1.43;0.77;;;;;;;;;;5082904;28;20242;-34
2022/11/04 13:49:22;;;;;;;1.87;1.17;;;;;;;;;;5090317;28;20216;-32
2022/11/04 13:52:05;;;;;;;1.67;0.77;;;;;;;;;;5092311;28;20229;-33
2022/11/04 13:54:34;;;;;;;2.20;1.20;;;;;;;;;;5088584;28;20196;-33
2022/11/04 13:57:11;;;;;;;4.53;1.10;;;;;;;;;;5095999;28;20262;-32
2022/11/04 13:59:38;;;;;;;6.53;1.53;;;;;;;;;;5083640;28;20193;-33
2022/11/04 14:02:38;;;;;;;3.00;0.90;;;;;;;;;;5086935;28;20299;-30
2022/11/04 14:05:20;;;;;;;3.80;0.80;;;;;;;;;;5089240;28;20197;-31
2022/11/04 14:08:07;;;;;;;4.33;0.80;;;;;;;;;;5093983;28;20292;-31
2022/11/04 14:10:38;;;;;;;2.20;1.13;;;;;;;;;;5095509;28;20224;-32
2022/11/04 14:13:23;;;;;;;0.93;0.87;;;;;;;;;;5074402;28;20269;-32
2022/11/04 14:15:59;;;;;;;3.17;0.70;;;;;;;;;;5060800;28;20302;-30
2022/11/04 14:18:29;;;;;;;2.10;0.70;;;;;;;;;;5075119;28;20203;-31
2022/11/04 14:21:02;;;;;;;1.97;0.87;;;;;;;;;;5080608;28;20217;-29
2022/11/04 14:23:29;;;;;;;4.33;0.90;;;;;;;;;;5089533;28;20207;-32
2022/11/04 14:26:00;;;;;;;3.60;0.70;;;;;;;;;;5083946;28;20201;-30
2022/11/04 14:28:28;;;;;;;4.10;0.97;;;;;;;;;;5080196;28;20217;-31
2022/11/04 14:30:56;;;;;;;3.90;1.00;;;;;;;;;;5095085;28;20225;-29
2022/11/04 14:33:29;;;;;;;2.43;0.73;;;;;;;;;;5091791;28;20218;-34
2022/11/04 14:36:14;;;;;;;4.67;1.10;;;;;;;;;;5081901;28;20207;-32
2022/11/04 14:38:41;;;;;;;0.97;0.87;;;;;;;;;;5085582;28;20196;-33
2022/11/04 14:41:21;;;;;;;3.07;1.03;;;;;;;;;;5083599;28;20218;-31
2022/11/04 14:43:49;;;;;;;3.00;0.97;;;;;;;;;;5086594;28;20201;-33
2022/11/04 14:46:21;;;;;;;2.40;0.80;;;;;;;;;;5087558;28;20200;-31
2022/11/04 14:48:51;;;;;;;2.37;1.07;;;;;;;;;;5090518;28;20224;-32
2022/11/04 14:51:24;;;;;;;4.63;1.00;;;;;;;;;;5082559;28;20308;-32
2022/11/04 14:53:53;;;;;;;1.77;0.70;;;;;;;;;;5092936;28;20197;-30
2022/11/04 14:56:22;;;;;;;1.50;0.90;;;;;;;;;;5088545;28;20321;-31
2022/11/04 14:58:55;;;;;;;1.30;0.80;;;;;;;;;;5081126;28;20216;-32
2022/11/04 15:01:23;;;;;;;2.70;0.70;;;;;;;;;;5079615;28;20283;-33
2022/11/04 15:03:51;;;;;;;5.50;1.07;;;;;;;;;;5087698;28;20197;-29
2022/11/04 15:06:26;;;;;;;1.57;0.80;;;;;;;;;;5088643;28;20217;-33
2022/11/04 15:08:53;;;;;;;2.93;0.67;;;;;;;;;;5086648;28;20232;-30
2022/11/04 15:12:49;;;;;;;5.23;1.00;;;;;;;;;;5089470;28;20240;-32
2022/11/04 15:14:17;;;;;;;2.37;0.60;;;;;;;;;;5084871;28;20200;-30
2022/11/04 15:16:46;;;;;;;2.67;0.90;;;;;;;;;;5091605;28;20196;-31
2022/11/04 15:19:19;;;;;;;2.60;0.83;;;;;;;;;;5087842;28;20219;-31
2022/11/04 15:21:49;;;;;;;1.13;0.90;;;;;;;;;;5084665;28;20224;-32
2022/11/04 15:24:19;;;;;;;2.20;0.60;;;;;;;;;;5090894;28;20197;-30
2022/11/04 15:26:50;;;;;;;9.83;3.30;;;;;;;;;;5090269;28;20288;-30
2022/11/04 15:29:17;;;;;;;2.80;1.00;;;;;;;;;;5084791;28;20225;-32
2022/11/04 15:31:52;;;;;;;11.80;6.27;;;;;;;;;;5085103;28;20274;-34
2022/11/04 15:34:19;;;;;;;34.77;20.17;;;;;;;;;;5083342;28;20203;-32